Time;durP1;ratioP1;P1;durP2;ratioP2;P2;SDS_P1;SDS_P2;PMS_P1;PMS_P2;Temp;Humidity;BMP_temperature;BMP_pressure;BME280_temperature;BME280_humidity;BME280_pressure;Samples;Min_cycle;Max_cycle;Signal;HPM_P1;HPM_P2
2023/01/05 00:01:19;;;;;;;43.47;20.92;;;;;;;17.32;57.39;101649.72;6156975;23;20021;-36
2023/01/05 00:03:45;;;;;;;43.83;20.40;;;;;;;17.32;57.82;101653.22;6155482;23;20028;-35
2023/01/05 00:06:16;;;;;;;43.03;20.80;;;;;;;17.32;57.20;101663.09;6154058;23;20343;-36
2023/01/05 00:08:45;;;;;;;45.70;20.27;;;;;;;17.33;57.39;101667.50;6155173;23;20052;-36
2023/01/05 00:22:33;;;;;;;42.10;17.63;;;;;;;17.27;58.07;101667.03;6156975;23;20022;-37
2023/01/05 00:25:03;;;;;;;36.90;16.50;;;;;;;17.26;58.16;101669.84;6154896;23;20342;-36
2023/01/05 00:27:39;;;;;;;38.10;17.55;;;;;;;17.25;57.51;101666.31;6156866;23;20100;-36
2023/01/05 00:30:07;;;;;;;37.92;16.83;;;;;;;17.25;57.35;101647.56;6155690;23;20025;-36
2023/01/05 00:32:33;;;;;;;34.97;16.73;;;;;;;17.25;57.57;101660.97;6153209;23;20053;-36
2023/01/05 00:35:00;;;;;;;36.88;15.77;;;;;;;17.25;57.96;101646.72;6153525;23;20029;-36
2023/01/05 00:37:30;;;;;;;38.10;15.50;;;;;;;17.24;57.61;101655.72;6152387;23;20026;-37
2023/01/05 00:39:57;;;;;;;38.33;15.60;;;;;;;17.23;57.74;101662.91;6151795;23;20025;-36
2023/01/05 00:42:24;;;;;;;31.88;14.02;;;;;;;17.24;57.92;101661.91;6152543;23;20021;-35
2023/01/05 00:44:50;;;;;;;33.38;14.27;;;;;;;17.23;57.41;101664.72;6156578;23;20021;-36
2023/01/05 00:47:17;;;;;;;28.80;14.10;;;;;;;17.23;57.56;101675.44;6158417;23;20104;-35
2023/01/05 00:49:44;;;;;;;32.90;14.05;;;;;;;17.22;58.25;101671.91;6157781;23;20053;-36
2023/01/05 00:52:10;;;;;;;29.60;13.63;;;;;;;17.22;58.06;101674.59;6158315;23;20025;-35
2023/01/05 00:54:37;;;;;;;32.20;12.45;;;;;;;17.22;57.53;101673.75;6155844;23;20259;-36
2023/01/05 00:57:05;;;;;;;30.42;12.90;;;;;;;17.21;57.72;101683.63;6158969;23;20029;-35
2023/01/05 00:59:32;;;;;;;32.80;12.80;;;;;;;17.20;57.95;101679.22;6157375;23;20256;-36
2023/01/05 01:01:59;;;;;;;30.65;12.70;;;;;;;17.19;57.60;101680.22;6158973;23;20021;-36
2023/01/05 01:04:25;;;;;;;30.05;11.88;;;;;;;17.19;58.10;101682.88;6158476;23;20061;-38
2023/01/05 01:06:53;;;;;;;26.67;11.15;;;;;;;17.19;57.81;101685.56;6157709;23;20021;-36
2023/01/05 01:09:20;;;;;;;27.83;10.73;;;;;;;17.19;57.68;101680.22;6156263;23;20072;-35
2023/01/05 01:11:46;;;;;;;28.02;10.93;;;;;;;17.20;57.44;101695.28;6157352;23;20039;-36
2023/01/05 01:14:13;;;;;;;22.38;10.57;;;;;;;17.21;57.71;101696.19;6156339;23;20026;-36
2023/01/05 01:16:41;;;;;;;27.95;10.05;;;;;;;17.20;57.88;101697.97;6154387;23;20068;-36
2023/01/05 01:19:12;;;;;;;26.88;10.43;;;;;;;17.21;57.81;101698.84;6155281;23;20021;-35
2023/01/05 01:21:38;;;;;;;21.70;8.98;;;;;;;17.21;58.01;101704.22;6155677;23;20025;-36
2023/01/05 01:24:05;;;;;;;25.70;9.30;;;;;;;17.20;57.83;101700.66;6154609;23;20654;-36
2023/01/05 01:26:32;;;;;;;20.77;9.48;;;;;;;17.20;57.96;101716.72;6154834;23;20286;-38
2023/01/05 01:28:58;;;;;;;24.92;10.00;;;;;;;17.20;58.00;101714.03;6157969;23;20028;-36
2023/01/05 01:31:25;;;;;;;23.90;9.82;;;;;;;17.21;57.98;101723.81;6154924;23;20082;-36
2023/01/05 01:33:51;;;;;;;22.58;8.73;;;;;;;17.19;58.00;101728.44;6156090;23;20025;-36
2023/01/05 01:36:18;;;;;;;20.77;8.90;;;;;;;17.20;57.81;101729.28;6155640;23;20112;-36
2023/01/05 01:38:44;;;;;;;24.27;8.75;;;;;;;17.19;58.11;101728.44;6155342;23;20026;-35
2023/01/05 01:41:12;;;;;;;22.40;8.07;;;;;;;17.19;58.26;101733.78;6154726;23;20024;-36
2023/01/05 01:43:48;;;;;;;23.15;8.02;;;;;;;17.18;57.75;101729.41;6154335;23;20025;-36
2023/01/05 01:46:16;;;;;;;22.58;7.80;;;;;;;17.18;57.54;101726.75;6156249;23;20029;-35
2023/01/05 01:48:50;;;;;;;17.77;7.65;;;;;;;17.18;57.96;101745.50;6155145;23;20084;-36
2023/01/05 01:51:23;;;;;;;18.05;7.57;;;;;;;17.18;57.70;101739.28;6154623;23;20035;-36
2023/01/05 01:53:54;;;;;;;17.90;7.63;;;;;;;17.17;57.54;101743.78;6153942;23;20026;-36
2023/01/05 01:56:24;;;;;;;23.70;7.88;;;;;;;17.17;57.72;101751.84;6154042;23;20021;-35
2023/01/05 01:58:51;;;;;;;21.13;7.70;;;;;;;17.17;58.22;101742.94;6156148;23;20026;-35
2023/01/05 02:01:17;;;;;;;23.27;7.15;;;;;;;17.15;57.94;101743.06;6154190;23;20025;-36
2023/01/05 02:03:44;;;;;;;18.35;6.30;;;;;;;17.16;57.79;101741.22;6152884;23;20413;-36
2023/01/05 02:06:11;;;;;;;20.23;6.72;;;;;;;17.15;57.63;101743.06;6155245;23;20025;-36
2023/01/05 02:08:38;;;;;;;18.45;7.25;;;;;;;17.14;58.01;101741.34;6156308;23;20021;-36
2023/01/05 02:11:07;;;;;;;17.23;6.82;;;;;;;17.14;57.94;101740.50;6157536;23;20442;-36
2023/01/05 02:14:09;;;;;;;18.10;6.20;;;;;;;17.12;58.62;101743.28;6156677;23;20025;-36
2023/01/05 02:17:22;;;;;;;23.75;6.95;;;;;;;17.10;58.36;101745.25;6137432;23;20104;-35
2023/01/05 02:20:07;;;;;;;21.90;6.70;;;;;;;17.14;57.92;101764.63;6037239;23;20023;-37
2023/01/05 02:23:07;;;;;;;17.10;5.88;;;;;;;17.12;57.92;101763.88;6157704;23;20037;-36
2023/01/05 02:25:53;;;;;;;17.80;6.47;;;;;;;17.12;58.37;101759.38;6156734;23;20389;-36
2023/01/05 02:28:41;;;;;;;20.52;6.43;;;;;;;17.11;58.60;101760.34;6158076;23;20285;-36
2023/01/05 02:31:14;;;;;;;22.70;6.28;;;;;;;17.10;58.54;101760.50;6157749;23;20101;-36
2023/01/05 02:34:08;;;;;;;19.37;6.00;;;;;;;17.10;58.00;101752.47;6157959;23;20021;-35
2023/01/05 02:37:13;;;;;;;15.07;5.50;;;;;;;17.09;58.13;101754.28;6156251;23;20029;-39
2023/01/05 02:39:49;;;;;;;15.55;6.15;;;;;;;17.11;58.58;101749.63;6132137;23;20029;-35
2023/01/05 02:42:22;;;;;;;20.05;6.32;;;;;;;17.12;58.20;101748.66;6154292;23;20468;-36
2023/01/05 02:44:49;;;;;;;15.07;5.63;;;;;;;17.12;57.84;101751.34;6154292;23;20056;-36
2023/01/05 02:47:28;;;;;;;16.40;5.72;;;;;;;17.11;58.56;101757.69;6154390;23;20428;-37
2023/01/05 02:50:21;;;;;;;15.43;4.97;;;;;;;17.11;58.04;101767.53;6154429;23;20053;-36
2023/01/05 02:52:48;;;;;;;12.20;5.13;;;;;;;17.14;58.13;101761.94;6154101;23;20025;-36
2023/01/05 02:55:20;;;;;;;18.92;5.60;;;;;;;17.13;58.66;101769.13;6153860;23;20445;-35
2023/01/05 02:57:58;;;;;;;15.75;4.82;;;;;;;17.13;58.62;101773.66;6154487;23;20025;-37
2023/01/05 03:00:36;;;;;;;15.80;5.13;;;;;;;17.13;57.84;101761.09;6156942;23;20027;-38
2023/01/05 03:03:14;;;;;;;14.20;5.15;;;;;;;17.12;57.78;101764.72;6154481;23;20048;-37
2023/01/05 03:05:52;;;;;;;14.93;5.35;;;;;;;17.13;58.50;101770.97;6154091;23;20028;-35
2023/01/05 03:08:23;;;;;;;14.60;4.28;;;;;;;17.12;58.10;101761.19;6152730;23;20021;-36
2023/01/05 03:14:14;;;;;;;17.98;4.95;;;;;;;17.11;58.64;101755.00;6154344;23;20349;-36
2023/01/05 03:16:44;;;;;;;13.05;4.40;;;;;;;17.12;58.36;101766.56;6154230;23;20108;-36
2023/01/05 03:36:12;;;;;;;14.90;4.07;;;;;;;17.08;57.81;101771.31;6154183;23;20282;-36
2023/01/05 03:38:44;;;;;;;11.85;4.72;;;;;;;17.07;58.02;101782.16;6154142;23;20327;-36
2023/01/05 03:41:14;;;;;;;16.67;4.32;;;;;;;17.07;58.13;101769.63;6154268;23;20022;-36
2023/01/05 03:43:42;;;;;;;12.93;4.13;;;;;;;17.07;58.67;101772.28;6154728;23;20079;-36
2023/01/05 03:46:13;;;;;;;16.17;4.68;;;;;;;17.06;58.47;101773.28;6154125;23;20032;-35
2023/01/05 03:48:40;;;;;;;15.60;3.85;;;;;;;17.07;58.46;101768.78;6153870;23;20029;-36
2023/01/05 03:51:07;;;;;;;10.95;3.80;;;;;;;17.07;58.55;101771.44;6153544;23;20419;-36
2023/01/05 03:53:33;;;;;;;14.13;4.15;;;;;;;17.04;58.27;101777.91;6152661;23;20108;-35
2023/01/05 03:56:00;;;;;;;14.68;4.05;;;;;;;17.06;58.82;101781.31;6154040;23;20072;-36
2023/01/05 03:58:26;;;;;;;15.27;4.00;;;;;;;17.05;58.22;101782.31;6155728;23;20025;-36
2023/01/05 04:00:53;;;;;;;13.80;3.72;;;;;;;17.05;58.42;101782.31;6156248;23;20037;-36
2023/01/05 04:03:20;;;;;;;15.65;4.63;;;;;;;17.05;58.35;101792.16;6155525;23;20021;-36
2023/01/05 04:05:53;;;;;;;15.05;4.20;;;;;;;17.04;58.61;101791.28;6156937;23;20087;-36
2023/01/05 04:08:19;;;;;;;11.82;4.07;;;;;;;17.04;58.15;101785.94;6155933;23;20021;-36
2023/01/05 04:10:46;;;;;;;14.88;4.60;;;;;;;17.03;58.81;101782.41;6156270;23;20017;-36
2023/01/05 04:13:12;;;;;;;13.38;4.10;;;;;;;17.03;58.49;101782.41;6156569;23;20100;-36
2023/01/05 04:15:39;;;;;;;14.68;4.03;;;;;;;17.03;58.20;101786.91;6155589;23;20033;-36
2023/01/05 04:18:06;;;;;;;17.48;3.85;;;;;;;17.03;57.92;101793.13;6155545;23;20096;-37
2023/01/05 04:20:33;;;;;;;14.57;4.05;;;;;;;17.03;58.58;101786.91;6156190;23;20028;-35
2023/01/05 04:22:59;;;;;;;11.60;4.13;;;;;;;17.05;58.51;101790.34;6155713;23;20052;-35
2023/01/05 04:25:26;;;;;;;12.80;3.70;;;;;;;17.03;58.39;101786.91;6155879;23;20405;-36
2023/01/05 04:27:52;;;;;;;13.63;3.83;;;;;;;17.03;58.19;101787.75;6155040;23;20032;-36
2023/01/05 04:30:20;;;;;;;13.68;4.47;;;;;;;17.04;58.82;101804.69;6154190;23;20025;-36
2023/01/05 04:32:46;;;;;;;13.27;3.45;;;;;;;17.04;58.56;101799.31;6152664;23;20057;-35
2023/01/05 04:35:13;;;;;;;14.23;3.75;;;;;;;17.05;58.22;101794.84;6153768;23;20021;-36
2023/01/05 04:37:40;;;;;;;11.95;3.63;;;;;;;17.06;58.54;101793.84;6153183;23;20025;-36
2023/01/05 04:40:07;;;;;;;11.60;3.30;;;;;;;17.06;58.50;101800.06;6152341;23;20061;-36
2023/01/05 04:42:33;;;;;;;17.02;3.60;;;;;;;17.07;57.95;101796.41;6153294;23;20025;-36
2023/01/05 04:45:00;;;;;;;13.18;3.63;;;;;;;17.07;58.81;101796.41;6154197;23;20030;-36
2023/01/05 04:47:26;;;;;;;15.38;4.32;;;;;;;17.07;58.41;101806.25;6153467;23;20026;-36
2023/01/05 04:49:53;;;;;;;15.23;3.88;;;;;;;17.07;58.54;101809.78;6153782;23;20032;-36
2023/01/05 04:52:19;;;;;;;15.15;4.03;;;;;;;17.07;58.12;101804.44;6154549;23;20022;-36
2023/01/05 04:54:46;;;;;;;15.60;4.60;;;;;;;17.07;58.42;101814.31;6152221;23;20021;-36
2023/01/05 04:57:12;;;;;;;12.50;3.38;;;;;;;17.07;57.96;101800.91;6153520;23;20132;-36
2023/01/05 04:59:39;;;;;;;12.35;2.92;;;;;;;17.07;58.28;101806.25;6153605;23;20104;-35
2023/01/05 05:02:05;;;;;;;8.70;2.63;;;;;;;17.06;58.78;101801.91;6155554;23;20497;-35
2023/01/05 05:04:32;;;;;;;10.80;2.92;;;;;;;17.06;58.86;101809.94;6156343;23;20044;-35
2023/01/05 05:06:59;;;;;;;12.32;3.25;;;;;;;17.05;58.18;101800.19;6155464;23;20025;-35
2023/01/05 05:09:25;;;;;;;12.50;3.00;;;;;;;17.04;58.80;101804.69;6152318;23;20029;-35
2023/01/05 05:11:52;;;;;;;11.13;3.10;;;;;;;17.03;58.47;101802.97;6152139;23;20021;-34
2023/01/05 05:14:18;;;;;;;13.65;4.15;;;;;;;17.03;58.31;101805.66;6153344;23;20055;-34
2023/01/05 05:16:45;;;;;;;10.15;3.20;;;;;;;17.02;58.59;101809.31;6154419;23;20026;-34
2023/01/05 05:19:12;;;;;;;11.20;3.35;;;;;;;17.02;58.25;101818.19;6152415;23;20044;-36
2023/01/05 05:21:38;;;;;;;12.70;3.47;;;;;;;17.02;58.14;101826.25;6152997;23;20716;-35
2023/01/05 05:24:05;;;;;;;9.13;3.03;;;;;;;17.02;58.18;101822.72;6152847;23;20029;-36
2023/01/05 05:26:32;;;;;;;12.70;3.03;;;;;;;17.02;58.32;101828.06;6152851;23;20043;-36
2023/01/05 05:28:58;;;;;;;12.07;3.53;;;;;;;17.00;58.37;101830.88;6152121;23;20030;-35
2023/01/05 05:31:25;;;;;;;10.63;3.15;;;;;;;17.01;58.17;101837.94;6154574;23;20021;-36
2023/01/05 05:33:51;;;;;;;9.45;3.10;;;;;;;17.00;58.49;101838.03;6155446;23;20029;-35
2023/01/05 05:36:18;;;;;;;9.07;3.33;;;;;;;17.00;58.97;101841.59;6155635;23;20056;-36
2023/01/05 05:38:45;;;;;;;13.90;3.85;;;;;;;17.00;58.16;101838.91;6153900;23;20442;-36
2023/01/05 05:41:11;;;;;;;16.17;3.35;;;;;;;16.99;58.60;101849.72;6154861;23;20025;-35
2023/01/05 05:43:38;;;;;;;10.90;3.28;;;;;;;17.00;59.03;101859.47;6155945;23;20025;-35
2023/01/05 05:46:04;;;;;;;14.57;4.10;;;;;;;16.99;58.39;101863.97;6156055;23;20401;-35
2023/01/05 05:48:31;;;;;;;12.88;3.08;;;;;;;16.99;58.31;101863.97;6154951;23;20033;-36
2023/01/05 05:50:58;;;;;;;16.80;3.30;;;;;;;16.98;58.62;101870.31;6154545;23;20096;-36
2023/01/05 05:53:24;;;;;;;13.98;2.78;;;;;;;16.98;58.28;101870.31;6153946;23;20025;-36
2023/01/05 05:55:51;;;;;;;11.45;3.35;;;;;;;16.98;58.46;101869.47;6155063;23;20044;-35
2023/01/05 05:58:18;;;;;;;13.38;3.63;;;;;;;16.98;58.94;101874.81;6154664;23;20053;-35
2023/01/05 06:00:45;;;;;;;15.02;3.83;;;;;;;16.99;58.66;101871.16;6155881;23;20390;-35
2023/01/05 06:03:11;;;;;;;12.05;3.58;;;;;;;16.98;58.72;101873.00;6155565;23;20031;-37
2023/01/05 06:05:38;;;;;;;12.48;3.08;;;;;;;16.99;58.49;101876.50;6154691;23;20335;-35
2023/01/05 06:08:05;;;;;;;12.88;3.70;;;;;;;17.00;59.09;101883.56;6156470;23;20029;-35
2023/01/05 06:10:31;;;;;;;12.35;3.42;;;;;;;17.01;58.78;101887.97;6157639;23;20100;-35
2023/01/05 06:12:58;;;;;;;13.93;3.22;;;;;;;17.01;58.63;101888.81;6157954;23;20322;-39
2023/01/05 06:15:25;;;;;;;13.10;3.25;;;;;;;17.01;58.27;101896.00;6157800;23;20105;-36
2023/01/05 06:17:51;;;;;;;11.07;3.30;;;;;;;17.01;58.67;101904.03;6158028;23;20427;-36
2023/01/05 06:20:18;;;;;;;8.52;2.67;;;;;;;17.02;58.94;101898.56;6157478;23;20068;-36
2023/01/05 06:22:45;;;;;;;13.88;3.60;;;;;;;17.03;58.68;101905.59;6157449;23;20036;-35
2023/01/05 06:25:11;;;;;;;11.30;3.47;;;;;;;17.05;58.97;101915.38;6157008;23;20021;-37
2023/01/05 06:27:38;;;;;;;14.30;3.17;;;;;;;17.04;58.68;101922.53;6157977;23;20033;-36
2023/01/05 06:30:05;;;;;;;12.30;2.88;;;;;;;17.05;58.10;101920.72;6157328;23;20022;-36
2023/01/05 06:32:32;;;;;;;9.52;3.03;;;;;;;17.07;58.29;101926.81;6158069;23;20021;-35
2023/01/05 06:34:58;;;;;;;15.95;3.00;;;;;;;17.06;58.09;101925.94;6157387;23;20061;-36
2023/01/05 06:37:25;;;;;;;11.93;3.45;;;;;;;17.06;58.03;101925.09;6155305;23;20165;-35
2023/01/05 06:39:53;;;;;;;11.48;3.70;;;;;;;17.06;58.47;101939.34;6153992;23;20394;-36
2023/01/05 06:42:20;;;;;;;8.50;2.65;;;;;;;17.05;58.64;101936.81;6154862;23;20285;-38
2023/01/05 06:44:49;;;;;;;9.38;2.90;;;;;;;17.07;58.91;101937.50;6155617;23;20030;-35
2023/01/05 06:47:16;;;;;;;12.73;3.30;;;;;;;17.06;58.43;101951.88;6152112;23;20108;-36
2023/01/05 06:49:42;;;;;;;8.70;2.85;;;;;;;17.07;58.62;101942.88;6154008;23;20041;-36
2023/01/05 06:52:09;;;;;;;10.00;3.00;;;;;;;17.06;58.14;101941.19;6154248;23;20021;-36
2023/01/05 06:54:42;;;;;;;11.93;3.38;;;;;;;17.05;59.02;101945.69;6153003;23;20029;-35
2023/01/05 06:57:09;;;;;;;9.55;2.63;;;;;;;17.05;58.18;101951.03;6156031;23;20410;-37
2023/01/05 06:59:36;;;;;;;9.90;2.38;;;;;;;17.05;58.37;101951.03;6130291;23;20616;-38
2023/01/05 07:02:02;;;;;;;17.13;3.58;;;;;;;17.03;58.77;101947.63;6155301;23;20347;-36
2023/01/05 07:04:29;;;;;;;9.35;3.38;;;;;;;17.05;58.33;101952.88;6156327;23;20128;-36
2023/01/05 07:06:56;;;;;;;14.50;3.40;;;;;;;17.04;58.65;101954.66;6156802;23;20334;-36
2023/01/05 07:09:22;;;;;;;7.90;2.72;;;;;;;17.04;58.67;101960.03;6155726;23;20064;-36
2023/01/05 07:11:49;;;;;;;11.60;3.55;;;;;;;17.02;58.52;101962.84;6156409;23;20358;-36
2023/01/05 07:14:16;;;;;;;12.65;3.25;;;;;;;17.02;58.79;101959.31;6156808;23;20132;-36
2023/01/05 07:16:42;;;;;;;11.73;3.15;;;;;;;17.01;58.32;101962.97;6156016;23;20044;-36
2023/01/05 07:19:09;;;;;;;11.65;3.05;;;;;;;17.01;59.01;101971.00;6156900;23;20043;-36
2023/01/05 07:21:36;;;;;;;13.15;3.25;;;;;;;17.01;58.56;101971.84;6156150;23;20025;-37
2023/01/05 07:24:02;;;;;;;11.27;2.92;;;;;;;17.00;58.62;101974.63;6154490;23;20025;-36
2023/01/05 07:26:29;;;;;;;10.07;3.28;;;;;;;17.00;58.76;101978.19;6153199;23;20029;-36
2023/01/05 07:28:57;;;;;;;11.38;3.40;;;;;;;16.99;58.55;101976.47;6152133;23;20517;-35
2023/01/05 07:31:23;;;;;;;16.23;3.60;;;;;;;16.98;58.63;101969.41;6151686;23;20053;-36
2023/01/05 07:33:50;;;;;;;13.27;3.63;;;;;;;16.99;58.71;101972.94;6153514;23;20032;-36
2023/01/05 07:36:17;;;;;;;10.63;3.03;;;;;;;16.99;58.79;101967.56;6156208;23;20022;-36
2023/01/05 07:38:43;;;;;;;10.93;3.05;;;;;;;16.99;59.13;101964.91;6153475;23;20032;-36
2023/01/05 07:41:10;;;;;;;11.10;4.13;;;;;;;16.98;58.28;101973.91;6155897;23;20097;-35
2023/01/05 07:43:36;;;;;;;11.90;3.67;;;;;;;16.97;58.46;101970.38;6155791;23;20100;-36
2023/01/05 07:46:03;;;;;;;16.98;4.63;;;;;;;16.95;58.31;101969.63;6129388;23;20022;-37
2023/01/05 07:48:30;;;;;;;13.40;3.75;;;;;;;16.97;58.92;101969.53;6155476;23;20056;-36
2023/01/05 07:51:03;;;;;;;13.05;4.90;;;;;;;16.97;58.80;101974.91;6129819;23;20401;-38
2023/01/05 07:53:31;;;;;;;;;;;;;;;16.94;59.33;101972.44;6154469;23;20434;-35
2023/01/05 07:56:05;;;;;;;15.93;4.53;;;;;;;16.99;58.89;101978.28;6154703;23;19920;-36
2023/01/05 07:58:32;;;;;;;14.75;5.07;;;;;;;16.98;58.83;101988.16;6154966;23;20064;-36
2023/01/05 08:01:07;;;;;;;16.92;4.85;;;;;;;16.97;58.64;102002.53;6153198;23;20396;-36
2023/01/05 08:03:34;;;;;;;14.50;5.07;;;;;;;16.97;59.03;101999.00;6152919;23;20105;-35
2023/01/05 08:06:06;;;;;;;15.63;5.60;;;;;;;16.94;59.17;102000.06;6154576;23;20026;-35
2023/01/05 08:08:33;;;;;;;19.02;5.80;;;;;;;16.95;59.09;102003.59;6153329;23;20025;-36
2023/01/05 08:11:02;;;;;;;19.48;5.20;;;;;;;16.94;58.87;102005.44;6154948;23;20025;-36
2023/01/05 08:16:14;;;;;;;18.23;6.47;;;;;;;16.94;58.87;102016.16;6152893;23;20025;-35
2023/01/05 08:18:40;;;;;;;16.08;6.03;;;;;;;16.94;58.78;102012.63;6153117;23;20187;-36
2023/01/05 08:21:08;;;;;;;22.60;7.25;;;;;;;16.97;59.19;102023.09;6132163;23;20029;-39
2023/01/05 08:23:37;;;;;;;19.10;8.52;;;;;;;16.98;59.36;102028.31;6142188;23;20036;-39
2023/01/05 08:26:12;;;;;;;26.80;9.93;;;;;;;17.01;59.62;102029.94;6144009;23;20108;-36
2023/01/05 08:28:39;;;;;;;27.80;10.63;;;;;;;17.05;59.42;102031.41;6146154;23;20025;-36
2023/01/05 08:31:16;;;;;;;28.02;11.52;;;;;;;17.06;59.50;102043.81;6142686;23;20028;-36
2023/01/05 08:33:43;;;;;;;33.70;13.40;;;;;;;17.07;58.85;102040.16;6093203;23;20029;-37
2023/01/05 08:36:17;;;;;;;30.42;12.88;;;;;;;17.10;58.92;102042.59;6144082;23;20064;-36
2023/01/05 08:38:47;;;;;;;42.17;17.05;;;;;;;17.10;58.89;102042.59;6140541;23;20032;-36
2023/01/05 08:41:16;;;;;;;44.45;17.67;;;;;;;17.10;59.27;102039.94;6143542;23;20022;-36
2023/01/05 08:43:43;;;;;;;41.30;18.23;;;;;;;17.11;58.70;102054.16;6144446;23;20029;-36
2023/01/05 08:46:10;;;;;;;41.65;19.48;;;;;;;17.09;58.70;102056.97;6142347;23;20026;-36
2023/01/05 08:48:37;;;;;;;42.53;18.63;;;;;;;17.09;59.06;102064.16;6142541;23;20068;-37
2023/01/05 08:51:06;;;;;;;46.08;19.17;;;;;;;17.10;59.00;102060.50;6144613;23;20017;-36
2023/01/05 08:53:33;;;;;;;41.70;19.30;;;;;;;17.09;58.50;102062.34;6065090;23;20030;-36
2023/01/05 08:56:01;;;;;;;44.60;19.67;;;;;;;17.10;59.13;102061.34;6140718;23;20032;-36
2023/01/05 08:58:27;;;;;;;43.80;19.00;;;;;;;17.11;58.80;102063.06;6142596;23;20389;-35
2023/01/05 09:00:54;;;;;;;47.42;19.63;;;;;;;17.11;58.89;102060.38;6141022;23;20117;-36
2023/01/05 09:03:21;;;;;;;42.88;19.17;;;;;;;17.11;58.74;102067.56;6140875;23;20037;-36
2023/01/05 09:05:50;;;;;;;44.92;18.60;;;;;;;17.10;58.41;102080.09;6143618;23;20033;-36
2023/01/05 09:08:17;;;;;;;39.20;18.75;;;;;;;17.11;58.50;102079.13;6144275;23;20029;-36
2023/01/05 09:10:43;;;;;;;44.10;18.48;;;;;;;17.13;58.84;102071.00;6145555;23;20025;-39
2023/01/05 09:13:10;;;;;;;44.40;19.23;;;;;;;17.13;58.65;102079.88;6075944;23;20120;-38
2023/01/05 09:15:37;;;;;;;44.83;19.73;;;;;;;17.13;58.80;102076.34;6136601;23;20029;-37
2023/01/05 09:18:04;;;;;;;44.90;19.40;;;;;;;17.13;58.71;102071.00;6143750;23;20064;-36
2023/01/05 09:20:30;;;;;;;46.45;20.15;;;;;;;17.15;58.94;102080.59;6145987;23;20104;-36
2023/01/05 09:23:05;;;;;;;55.00;21.42;;;;;;;17.15;58.66;102083.28;6144716;23;20424;-39
2023/01/05 09:25:31;;;;;;;45.00;20.88;;;;;;;17.16;58.97;102090.34;6143260;23;20036;-36
2023/01/05 09:27:58;;;;;;;47.03;21.80;;;;;;;17.16;58.40;102095.69;6145513;23;20029;-36
2023/01/05 09:30:24;;;;;;;58.70;23.10;;;;;;;17.17;59.10;102093.91;6120237;23;20121;-36
2023/01/05 09:32:51;;;;;;;53.17;23.30;;;;;;;17.17;58.24;102099.25;6079178;23;20089;-36
2023/01/05 09:35:18;;;;;;;51.35;21.58;;;;;;;17.17;59.02;102102.78;6131823;23;20345;-37
2023/01/05 09:37:44;;;;;;;55.05;22.52;;;;;;;17.19;58.32;102108.88;6143618;23;20036;-36
2023/01/05 09:40:12;;;;;;;70.00;22.92;;;;;;;17.21;58.40;102106.94;6141347;23;20367;-36
2023/01/05 09:42:43;;;;;;;56.38;23.90;;;;;;;17.23;58.36;102106.81;6146001;23;20279;-36
2023/01/05 09:45:12;;;;;;;55.67;24.05;;;;;;;17.24;58.79;102117.41;6145796;23;20025;-36
2023/01/05 09:47:42;;;;;;;60.05;23.27;;;;;;;17.24;58.25;102109.34;6144418;23;20053;-36
2023/01/05 09:50:24;;;;;;;52.63;22.60;;;;;;;17.26;59.11;102122.66;6143597;23;20124;-36
2023/01/05 09:52:56;;;;;;;57.72;23.38;;;;;;;17.28;58.66;102121.53;6064243;23;20029;-36
2023/01/05 09:55:26;;;;;;;59.25;22.02;;;;;;;17.31;58.16;102124.97;6144844;23;20127;-36
2023/01/05 09:58:00;;;;;;;57.17;22.50;;;;;;;17.31;58.63;102122.28;6146354;23;20068;-36
2023/01/05 10:00:28;;;;;;;47.03;21.88;;;;;;;17.33;58.30;102129.25;6145727;23;20032;-36
2023/01/05 10:02:59;;;;;;;52.95;22.40;;;;;;;17.33;58.78;102131.09;6145004;23;20485;-36
2023/01/05 10:05:28;;;;;;;53.95;23.05;;;;;;;17.35;58.35;102142.53;6144470;23;20025;-36
2023/01/05 10:08:05;;;;;;;60.33;25.30;;;;;;;17.33;59.06;102141.81;6143807;23;20286;-37
2023/01/05 10:13:52;;;;;;;50.83;23.33;;;;;;;17.33;58.49;102133.78;6062596;23;20357;-37
2023/01/05 10:16:20;;;;;;;48.72;24.23;;;;;;;17.36;58.38;102134.34;6144481;23;20256;-38
2023/01/05 10:18:54;;;;;;;56.85;24.77;;;;;;;17.35;58.60;102129.13;6143771;23;20112;-37
2023/01/05 10:21:44;;;;;;;53.00;25.35;;;;;;;17.34;58.01;102132.78;6146480;23;20025;-36
2023/01/05 10:24:20;;;;;;;54.38;23.20;;;;;;;17.36;58.73;102133.50;6143257;23;20324;-37
2023/01/05 10:26:49;;;;;;;49.38;23.10;;;;;;;17.35;58.30;102134.50;6144530;23;20033;-36
2023/01/05 10:29:46;;;;;;;56.08;23.40;;;;;;;17.37;58.57;102137.91;6144139;23;20271;-36
2023/01/05 10:32:46;;;;;;;55.80;21.77;;;;;;;17.34;58.81;102148.88;6073839;23;20455;-38
2023/01/05 10:35:19;;;;;;;52.33;22.80;;;;;;;17.36;58.04;102153.13;6143547;23;20033;-37
2023/01/05 10:38:12;;;;;;;45.53;20.80;;;;;;;17.37;58.28;102146.81;6139858;23;20037;-37
2023/01/05 10:41:03;;;;;;;48.08;20.45;;;;;;;17.37;58.17;102148.63;6145777;23;20601;-36
2023/01/05 10:43:30;;;;;;;54.85;23.30;;;;;;;17.37;58.61;102145.97;6143566;23;20052;-39
2023/01/05 10:45:57;;;;;;;44.65;21.35;;;;;;;17.36;58.64;102142.41;6142624;23;20398;-36
2023/01/05 10:48:44;;;;;;;47.30;20.98;;;;;;;17.38;58.68;102150.34;6143438;23;20033;-35
2023/01/05 10:51:10;;;;;;;40.60;20.35;;;;;;;17.37;58.56;102148.63;6144398;23;20184;-36
2023/01/05 10:53:39;;;;;;;43.78;21.27;;;;;;;17.37;58.54;102154.84;6065173;23;20496;-37
2023/01/05 10:56:23;;;;;;;49.28;20.45;;;;;;;17.38;58.80;102156.56;6143705;23;20068;-37
2023/01/05 10:59:09;;;;;;;47.67;20.77;;;;;;;17.36;58.81;102145.06;6143625;23;20025;-36
2023/01/05 11:01:40;;;;;;;52.65;21.00;;;;;;;17.40;58.76;102143.88;6145325;23;20911;-36
2023/01/05 11:04:20;;;;;;;45.55;19.52;;;;;;;17.38;58.70;102140.47;6143996;23;20088;-36
2023/01/05 11:07:05;;;;;;;42.83;19.20;;;;;;;17.39;58.56;102147.53;6143794;23;20409;-36
2023/01/05 11:09:32;;;;;;;44.05;19.00;;;;;;;17.40;58.40;102143.03;6143334;23;20106;-36
2023/01/05 11:12:01;;;;;;;47.40;19.27;;;;;;;17.40;58.31;102141.19;6104764;23;20027;-36
2023/01/05 11:14:41;;;;;;;45.58;19.70;;;;;;;17.41;58.85;102140.25;6104172;23;20111;-36
2023/01/05 11:17:18;;;;;;;42.55;19.25;;;;;;;17.41;58.53;102145.59;6144089;23;20108;-36
2023/01/05 11:19:48;;;;;;;49.88;20.35;;;;;;;17.43;58.91;102140.97;6142474;23;20413;-36
2023/01/05 11:22:36;;;;;;;45.70;20.30;;;;;;;17.41;58.68;102144.75;6144489;23;20022;-36
2023/01/05 11:25:16;;;;;;;42.13;18.58;;;;;;;17.42;58.29;102141.09;6143401;23;20342;-36
2023/01/05 11:27:43;;;;;;;49.42;19.85;;;;;;;17.44;58.66;102139.97;6144654;23;20048;-36
2023/01/05 11:30:15;;;;;;;47.55;18.83;;;;;;;17.44;58.68;102150.72;6144350;23;20128;-36
2023/01/05 11:32:43;;;;;;;42.72;19.17;;;;;;;17.45;58.81;102149.75;6143204;23;20021;-35
2023/01/05 11:35:19;;;;;;;45.63;17.30;;;;;;;17.45;58.60;102151.59;6143024;23;20029;-37
2023/01/05 11:37:46;;;;;;;41.38;16.98;;;;;;;17.46;58.62;102143.41;6142785;23;20037;-38
2023/01/05 11:40:16;;;;;;;52.35;18.20;;;;;;;17.47;58.51;102145.13;6141764;23;20030;-38
2023/01/05 11:42:43;;;;;;;40.15;18.73;;;;;;;17.50;58.70;102141.34;6143329;23;20032;-36
2023/01/05 11:45:21;;;;;;;44.00;19.17;;;;;;;17.49;58.35;102145.88;6144678;23;20626;-36
2023/01/05 11:48:05;;;;;;;42.75;18.25;;;;;;;17.51;58.46;102143.06;6146168;23;20330;-36
2023/01/05 11:50:41;;;;;;;;;;;;;;;17.50;58.94;102141.34;6145669;23;20025;-36
2023/01/05 11:53:40;;;;;;;42.70;17.38;;;;;;;17.50;58.55;102128.81;6063111;23;20081;-36
2023/01/05 11:56:07;;;;;;;40.85;16.52;;;;;;;17.52;58.89;102128.66;6145755;23;20033;-36
2023/01/05 11:58:42;;;;;;;41.80;17.73;;;;;;;17.50;58.62;102123.44;6144196;23;20032;-36
2023/01/05 12:01:24;;;;;;;43.83;16.55;;;;;;;17.51;58.61;102117.09;6145154;23;20457;-36
2023/01/05 12:04:02;;;;;;;38.45;16.10;;;;;;;17.50;58.75;102118.09;6145895;23;20025;-36
2023/01/05 12:07:08;;;;;;;33.03;14.55;;;;;;;17.50;58.72;102118.09;6147730;23;20112;-38